WZZ55MF EYVI-LICC
Flight info
| Callsign | WZZ55MF |
|---|---|
| Flight time | N/A |
| Altitude | 36000 |
| Route | UPASI DCT TUNGA DCT SUWGI DCT BULEP DCT NEPOX DCT KELEL DCT OSDUK DCT AIOSA DCT RCA Q58 PIMOR |
| Aircraft | A21N/M-SDE3FGHIRWY/LB1 |
Departure
| Time | 2026-05-09 08:06 |
|---|---|
| Airport | Vilnius International Airport (EYVI) |
Arrival
| Time | N/A |
|---|---|
| Airport | Catania-Fontanarossa Airport (LICC) |
| Time | Latitude | Longitude | Altitude | Speed | Heading |
|---|---|---|---|---|---|
| 2026-05-09 07:36 | 54.64491 | 25.28176 | 627 ft | 0 kts | 270° |
| 2026-05-09 07:51 | 54.64491 | 25.28184 | 628 ft | 2 kts | 272° |
| 2026-05-09 07:51 | 54.64490 | 25.28210 | 628 ft | 2 kts | 269° |
| 2026-05-09 07:51 | 54.64489 | 25.28234 | 628 ft | 1 kts | 283° |
| 2026-05-09 07:52 | 54.64484 | 25.28257 | 629 ft | 2 kts | 298° |
| 2026-05-09 07:52 | 54.64476 | 25.28277 | 629 ft | 2 kts | 314° |
| 2026-05-09 07:52 | 54.64469 | 25.28295 | 630 ft | 1 kts | 285° |
| 2026-05-09 07:52 | 54.64468 | 25.28317 | 630 ft | 1 kts | 255° |
| 2026-05-09 07:53 | 54.64474 | 25.28336 | 631 ft | 2 kts | 227° |
| 2026-05-09 07:53 | 54.64481 | 25.28356 | 631 ft | 1 kts | 258° |
| 2026-05-09 07:53 | 54.64482 | 25.28379 | 631 ft | 1 kts | 257° |
| 2026-05-09 07:53 | 54.64484 | 25.28391 | 632 ft | 0 kts | 250° |
| 2026-05-09 07:55 | 54.64482 | 25.28381 | 631 ft | 3 kts | 254° |
| 2026-05-09 07:55 | 54.64460 | 25.28283 | 629 ft | 10 kts | 221° |
| 2026-05-09 07:55 | 54.64412 | 25.28337 | 631 ft | 9 kts | 122° |
| 2026-05-09 07:56 | 54.64357 | 25.28382 | 631 ft | 10 kts | 180° |
| 2026-05-09 07:56 | 54.64276 | 25.28369 | 630 ft | 14 kts | 186° |
| 2026-05-09 07:56 | 54.64187 | 25.28317 | 627 ft | 13 kts | 231° |
| 2026-05-09 07:56 | 54.64169 | 25.28220 | 627 ft | 7 kts | 258° |
| 2026-05-09 07:57 | 54.64154 | 25.28167 | 627 ft | 3 kts | 214° |
| 2026-05-09 07:57 | 54.64145 | 25.28163 | 627 ft | 0 kts | 184° |
| 2026-05-09 07:57 | 54.64141 | 25.28163 | 626 ft | 1 kts | 181° |
| 2026-05-09 07:58 | 54.64117 | 25.28167 | 626 ft | 5 kts | 171° |
| 2026-05-09 07:58 | 54.64063 | 25.28185 | 625 ft | 10 kts | 167° |
| 2026-05-09 07:58 | 54.63956 | 25.28227 | 622 ft | 20 kts | 167° |
| 2026-05-09 07:58 | 54.63805 | 25.28285 | 616 ft | 22 kts | 167° |
| 2026-05-09 07:59 | 54.63653 | 25.28343 | 610 ft | 21 kts | 167° |
| 2026-05-09 07:59 | 54.63537 | 25.28358 | 605 ft | 15 kts | 201° |
| 2026-05-09 07:59 | 54.63428 | 25.28281 | 601 ft | 18 kts | 201° |
| 2026-05-09 07:59 | 54.63302 | 25.28195 | 599 ft | 19 kts | 202° |
| 2026-05-09 08:00 | 54.63174 | 25.28105 | 596 ft | 19 kts | 202° |
| 2026-05-09 08:00 | 54.63049 | 25.28020 | 595 ft | 19 kts | 201° |
| 2026-05-09 08:00 | 54.62908 | 25.27922 | 594 ft | 22 kts | 202° |
| 2026-05-09 08:00 | 54.62763 | 25.27821 | 592 ft | 22 kts | 202° |
| 2026-05-09 08:01 | 54.62632 | 25.27731 | 594 ft | 16 kts | 202° |
| 2026-05-09 08:01 | 54.62546 | 25.27672 | 597 ft | 12 kts | 192° |
| 2026-05-09 08:01 | 54.62494 | 25.27701 | 595 ft | 0 kts | 143° |
| 2026-05-09 08:02 | 54.62493 | 25.27702 | 595 ft | 1 kts | 143° |
| 2026-05-09 08:02 | 54.62445 | 25.27766 | 593 ft | 11 kts | 140° |
| 2026-05-09 08:03 | 54.62424 | 25.27892 | 589 ft | 12 kts | 37° |
| 2026-05-09 08:03 | 54.62457 | 25.27916 | 588 ft | 0 kts | 21° |
| 2026-05-09 08:05 | 54.62550 | 25.27980 | 587 ft | 46 kts | 21° |
| 2026-05-09 08:05 | 54.63069 | 25.28337 | 592 ft | 112 kts | 22° |
| 2026-05-09 08:06 | 54.63978 | 25.28968 | 691 ft | 157 kts | 21° |
| 2026-05-09 08:06 | 54.65006 | 25.29623 | 1258 ft | 162 kts | 20° |
| 2026-05-09 08:06 | 54.66066 | 25.30282 | 1965 ft | 166 kts | 22° |
| 2026-05-09 08:06 | 54.67133 | 25.30992 | 2709 ft | 168 kts | 25° |
| 2026-05-09 08:07 | 54.68252 | 25.31790 | 3129 ft | 182 kts | 27° |
| 2026-05-09 08:07 | 54.69481 | 25.32673 | 3464 ft | 201 kts | 27° |
| 2026-05-09 08:07 | 54.70829 | 25.33701 | 3808 ft | 219 kts | 34° |
| 2026-05-09 08:07 | 54.71890 | 25.35610 | 4198 ft | 231 kts | 64° |
| 2026-05-09 08:08 | 54.72197 | 25.38357 | 4763 ft | 242 kts | 91° |
| 2026-05-09 08:08 | 54.72081 | 25.39679 | 5048 ft | 247 kts | 102° |
| 2026-05-09 08:08 | 54.71252 | 25.42351 | 5663 ft | 259 kts | 130° |
| 2026-05-09 08:08 | 54.69738 | 25.44065 | 6320 ft | 270 kts | 160° |
| 2026-05-09 08:09 | 54.67870 | 25.44254 | 6924 ft | 279 kts | 191° |
| 2026-05-09 08:09 | 54.66157 | 25.42698 | 7577 ft | 285 kts | 224° |
| 2026-05-09 08:09 | 54.65125 | 25.39828 | 8221 ft | 288 kts | 250° |
| 2026-05-09 08:09 | 54.64436 | 25.36550 | 8866 ft | 292 kts | 249° |
| 2026-05-09 08:10 | 54.63711 | 25.33285 | 9476 ft | 295 kts | 248° |
| 2026-05-09 08:10 | 54.62966 | 25.30014 | 10069 ft | 299 kts | 248° |
| 2026-05-09 08:10 | 54.62185 | 25.26626 | 10545 ft | 307 kts | 248° |
| 2026-05-09 08:10 | 54.61382 | 25.23163 | 10815 ft | 322 kts | 248° |
| 2026-05-09 08:11 | 54.60535 | 25.19523 | 11212 ft | 331 kts | 248° |
| 2026-05-09 08:11 | 54.59672 | 25.15818 | 11792 ft | 334 kts | 248° |
| 2026-05-09 08:11 | 54.58812 | 25.12132 | 12363 ft | 336 kts | 248° |
| 2026-05-09 08:11 | 54.57932 | 25.08377 | 12916 ft | 339 kts | 248° |
| 2026-05-09 08:12 | 54.56150 | 25.00804 | 14009 ft | 345 kts | 248° |
| 2026-05-09 08:12 | 54.55249 | 24.97000 | 14567 ft | 346 kts | 249° |
| 2026-05-09 08:12 | 54.54356 | 24.93220 | 15282 ft | 343 kts | 249° |
| 2026-05-09 08:13 | 54.53459 | 24.89396 | 15673 ft | 350 kts | 249° |
| 2026-05-09 08:13 | 54.52537 | 24.85477 | 16074 ft | 355 kts | 248° |